createdAt,value
2018-11-03T00:01:59.763Z,34.90
2018-11-03T00:04:28.383Z,34.83
2018-11-03T00:06:57.079Z,35.50
2018-11-03T00:09:25.712Z,36.30
2018-11-03T00:11:54.353Z,33.80
2018-11-03T00:14:23.052Z,34.03
2018-11-03T00:16:51.705Z,33.90
2018-11-03T00:19:20.375Z,34.37
2018-11-03T00:21:49.076Z,35.00
2018-11-03T00:24:17.688Z,34.17
2018-11-03T00:26:46.421Z,34.23
2018-11-03T00:29:15.101Z,32.80
2018-11-03T00:31:43.699Z,34.17
2018-11-03T00:34:12.350Z,32.70
2018-11-03T00:36:41.002Z,31.70
2018-11-03T00:39:11.505Z,34.27
2018-11-03T00:41:40.238Z,32.23
2018-11-03T00:44:09.423Z,32.63
2018-11-03T00:46:38.104Z,30.67
2018-11-03T00:49:06.875Z,32.30
2018-11-03T00:51:35.548Z,29.53
2018-11-03T00:54:04.165Z,32.30
2018-11-03T00:56:32.815Z,31.00
2018-11-03T01:01:35.273Z,30.90
2018-11-03T01:04:03.913Z,31.50
2018-11-03T01:06:32.518Z,29.37
2018-11-03T01:09:01.163Z,30.17
2018-11-03T01:11:29.863Z,29.50
2018-11-03T01:13:58.558Z,29.07
2018-11-03T01:16:27.441Z,28.47
2018-11-03T01:18:56.213Z,29.50
2018-11-03T01:21:24.915Z,29.07
2018-11-03T01:23:53.588Z,28.80
2018-11-03T01:26:22.373Z,28.40
2018-11-03T01:28:51.056Z,27.10
2018-11-03T01:31:19.720Z,28.57
2018-11-03T01:33:48.458Z,27.20
2018-11-03T01:36:17.158Z,27.40
2018-11-03T01:38:45.889Z,25.97
2018-11-03T01:41:14.637Z,27.20
2018-11-03T01:43:43.266Z,29.00
2018-11-03T01:46:11.968Z,26.87
2018-11-03T01:48:40.691Z,26.23
2018-11-03T01:51:09.329Z,26.20
2018-11-03T01:53:37.995Z,26.77
2018-11-03T01:56:06.793Z,26.53
2018-11-03T01:58:35.566Z,27.80
2018-11-03T02:01:04.229Z,26.07
2018-11-03T02:03:33.001Z,25.67
2018-11-03T02:06:01.653Z,26.77
2018-11-03T02:08:30.378Z,26.37
2018-11-03T02:10:59.097Z,26.10
2018-11-03T02:13:27.848Z,26.70
2018-11-03T02:15:56.588Z,26.67
2018-11-03T02:18:25.271Z,27.87
2018-11-03T02:20:53.998Z,27.07
2018-11-03T02:23:22.636Z,27.63
2018-11-03T02:25:51.319Z,27.53
2018-11-03T02:28:20.031Z,25.17
2018-11-03T02:30:48.719Z,25.60
2018-11-03T02:33:17.352Z,25.03
2018-11-03T02:35:45.982Z,24.07
2018-11-03T02:38:14.624Z,25.50
2018-11-03T02:40:43.303Z,24.30
2018-11-03T02:43:11.959Z,23.80
2018-11-03T02:45:40.584Z,25.40
2018-11-03T02:48:09.288Z,25.50
2018-11-03T02:50:37.959Z,24.30
2018-11-03T02:53:06.695Z,23.77
2018-11-03T02:55:35.328Z,24.30
2018-11-03T02:58:04.023Z,24.23
2018-11-03T03:00:32.819Z,23.87
2018-11-03T03:03:01.487Z,23.33
2018-11-03T03:05:30.179Z,23.20
2018-11-03T03:07:58.869Z,22.93
2018-11-03T03:10:27.698Z,22.50
2018-11-03T03:12:56.365Z,23.30
2018-11-03T03:15:25.042Z,20.83
2018-11-03T03:17:53.696Z,21.67
2018-11-03T03:20:22.363Z,22.90
2018-11-03T03:22:51.001Z,23.50
2018-11-03T03:25:19.701Z,23.10
2018-11-03T03:27:48.374Z,24.00
2018-11-03T03:30:17.061Z,21.73
2018-11-03T03:32:45.849Z,23.57
2018-11-03T03:35:14.683Z,22.23
2018-11-03T03:37:43.358Z,20.77
2018-11-03T03:40:12.129Z,21.40
2018-11-03T03:42:40.887Z,20.07
2018-11-03T03:45:10.406Z,21.10
2018-11-03T03:47:39.043Z,21.70
2018-11-03T03:50:08.846Z,21.03
2018-11-03T03:52:37.598Z,20.30
2018-11-03T03:55:06.677Z,18.43
2018-11-03T03:57:35.625Z,19.50
2018-11-03T04:00:04.352Z,19.67
2018-11-03T04:02:33.045Z,17.50
2018-11-03T04:05:01.698Z,18.00
2018-11-03T04:07:30.416Z,18.80
2018-11-03T04:09:59.108Z,17.40
2018-11-03T04:12:27.728Z,15.57
2018-11-03T04:14:56.459Z,16.23
2018-11-03T04:17:25.102Z,17.13
2018-11-03T04:19:53.736Z,17.60
2018-11-03T04:22:22.409Z,14.10
2018-11-03T04:24:51.058Z,14.90
2018-11-03T04:27:19.705Z,14.77
2018-11-03T04:29:48.339Z,14.77
2018-11-03T04:32:17.006Z,15.90
2018-11-03T04:34:45.646Z,14.90
2018-11-03T04:37:14.291Z,15.97
2018-11-03T04:39:42.923Z,14.70
2018-11-03T04:42:11.602Z,13.43
2018-11-03T04:44:40.290Z,14.30
2018-11-03T04:47:08.876Z,12.90
2018-11-03T04:49:37.578Z,13.53
2018-11-03T04:52:06.278Z,13.20
2018-11-03T04:54:35.017Z,13.57
2018-11-03T04:57:04.542Z,12.70
2018-11-03T04:59:33.250Z,12.53
2018-11-03T05:02:01.794Z,10.97
2018-11-03T05:04:30.426Z,10.10
2018-11-03T05:06:59.039Z,9.50
2018-11-03T05:09:27.682Z,11.00
2018-11-03T05:11:56.305Z,9.50
2018-11-03T05:14:24.963Z,10.13
2018-11-03T05:16:53.568Z,9.70
2018-11-03T05:19:22.186Z,9.70
2018-11-03T05:21:50.814Z,9.90
2018-11-03T05:24:19.420Z,9.37
2018-11-03T05:26:48.013Z,9.23
2018-11-03T05:29:16.628Z,8.70
2018-11-03T05:31:45.221Z,7.13
2018-11-03T05:34:13.890Z,7.70
2018-11-03T05:36:42.538Z,7.17
2018-11-03T05:39:12.381Z,8.73
2018-11-03T05:41:41.680Z,8.43
2018-11-03T05:44:10.581Z,7.20
2018-11-03T05:46:39.785Z,8.17
2018-11-03T05:49:08.370Z,8.80
2018-11-03T05:51:37.570Z,7.40
2018-11-03T05:54:06.899Z,8.53
2018-11-03T05:56:35.579Z,8.50
2018-11-03T05:59:04.715Z,9.30
2018-11-03T06:01:33.365Z,9.00
2018-11-03T06:04:02.106Z,10.33
2018-11-03T06:06:31.022Z,10.17
2018-11-03T06:08:59.807Z,11.63
2018-11-03T06:11:30.912Z,12.43
2018-11-03T06:13:59.562Z,12.40
2018-11-03T06:16:28.352Z,13.27
2018-11-03T06:18:57.118Z,13.63
2018-11-03T06:21:25.881Z,14.03
2018-11-03T06:23:56.219Z,13.57
2018-11-03T06:26:24.900Z,16.00
2018-11-03T06:28:53.678Z,15.67
2018-11-03T06:31:22.541Z,14.80
2018-11-03T06:33:51.227Z,15.00
2018-11-03T06:36:19.934Z,15.63
2018-11-03T06:38:48.594Z,15.70
2018-11-03T06:41:17.556Z,14.60
2018-11-03T06:43:46.433Z,16.00
2018-11-03T06:46:15.178Z,14.73
2018-11-03T06:48:44.181Z,15.10
2018-11-03T06:51:12.826Z,14.90
2018-11-03T06:53:41.532Z,14.13
2018-11-03T06:56:10.257Z,15.03
2018-11-03T06:58:38.890Z,13.47
2018-11-03T07:01:07.542Z,13.77
2018-11-03T07:03:36.182Z,13.87
2018-11-03T07:06:04.867Z,13.27
2018-11-03T07:08:33.555Z,13.57
2018-11-03T07:11:02.186Z,13.53
2018-11-03T07:13:30.853Z,13.37
2018-11-03T07:15:59.514Z,12.90
2018-11-03T07:18:28.210Z,13.47
2018-11-03T07:20:56.876Z,13.60
2018-11-03T07:23:25.535Z,13.93
2018-11-03T07:25:54.161Z,13.50
2018-11-03T07:28:22.817Z,12.43
2018-11-03T07:30:51.509Z,12.37
2018-11-03T07:33:20.111Z,12.77
2018-11-03T07:35:48.894Z,12.47
2018-11-03T07:38:17.549Z,13.07
2018-11-03T07:40:46.224Z,11.47
2018-11-03T07:43:14.849Z,11.20
2018-11-03T07:45:43.552Z,11.77
2018-11-03T07:48:12.177Z,11.53
2018-11-03T07:50:40.788Z,12.10
2018-11-03T07:53:09.452Z,11.37
2018-11-03T07:55:38.098Z,10.77
2018-11-03T07:58:06.746Z,11.27
2018-11-03T08:00:35.485Z,10.47
2018-11-03T08:03:04.081Z,10.10
2018-11-03T08:05:32.719Z,10.60
2018-11-03T08:08:01.552Z,10.47
2018-11-03T08:10:30.179Z,10.67
2018-11-03T08:12:58.742Z,10.40
2018-11-03T08:15:27.393Z,10.67
2018-11-03T08:17:56.030Z,9.23
2018-11-03T08:20:24.649Z,9.40
2018-11-03T08:22:53.309Z,9.30
2018-11-03T08:25:21.967Z,9.20
2018-11-03T08:27:50.725Z,8.70
2018-11-03T08:30:19.549Z,9.70
2018-11-03T08:32:48.256Z,8.57
2018-11-03T08:35:16.959Z,8.67
2018-11-03T08:37:45.673Z,9.30
2018-11-03T08:40:14.372Z,9.00
2018-11-03T08:42:43.111Z,9.07
2018-11-03T08:45:12.185Z,9.10
2018-11-03T08:47:40.852Z,10.27
2018-11-03T08:50:11.119Z,9.90
2018-11-03T08:52:39.901Z,9.30
2018-11-03T08:55:09.710Z,8.97
2018-11-03T08:57:38.433Z,9.70
2018-11-03T09:00:10.369Z,10.77
2018-11-03T09:02:39.206Z,10.50
2018-11-03T09:05:08.460Z,10.30
2018-11-03T09:07:43.791Z,11.10
2018-11-03T09:10:13.638Z,9.77
2018-11-03T09:12:42.391Z,9.90
2018-11-03T09:15:12.501Z,10.10
2018-11-03T09:17:42.038Z,9.20
2018-11-03T09:20:11.988Z,8.60
2018-11-03T09:22:40.863Z,8.60
2018-11-03T09:25:14.551Z,9.10
2018-11-03T09:27:43.782Z,9.27
2018-11-03T09:30:17.389Z,9.30
2018-11-03T09:32:46.046Z,9.20
2018-11-03T09:35:15.557Z,8.37
2018-11-03T09:37:44.257Z,8.40
2018-11-03T09:40:15.306Z,8.93
2018-11-03T09:42:45.077Z,9.30
2018-11-03T09:45:19.289Z,9.47
2018-11-03T09:47:47.962Z,9.80
2018-11-03T09:50:16.816Z,8.43
2018-11-03T09:52:45.602Z,8.60
2018-11-03T09:55:16.132Z,10.30
2018-11-03T09:57:45.079Z,9.47
2018-11-03T10:00:16.338Z,9.17
2018-11-03T10:02:45.783Z,9.10
2018-11-03T10:05:15.020Z,7.60
2018-11-03T10:07:43.729Z,8.30
2018-11-03T10:10:15.065Z,9.10
2018-11-03T10:12:43.872Z,8.70
2018-11-03T10:15:13.815Z,10.07
2018-11-03T10:17:42.902Z,8.40
2018-11-03T10:20:11.600Z,10.10
2018-11-03T10:22:40.230Z,9.07
2018-11-03T10:25:13.624Z,9.07
2018-11-03T10:27:42.763Z,8.47
2018-11-03T10:30:12.747Z,9.13
2018-11-03T10:32:41.971Z,9.07
2018-11-03T10:35:11.532Z,8.80
2018-11-03T10:37:46.894Z,9.40
2018-11-03T10:40:17.173Z,8.50
2018-11-03T10:42:45.875Z,9.90
2018-11-03T10:45:15.772Z,10.40
2018-11-03T10:47:44.591Z,10.13
2018-11-03T10:50:15.137Z,11.07
2018-11-03T10:52:44.537Z,11.03
2018-11-03T10:55:14.478Z,11.67
2018-11-03T10:57:43.388Z,12.00
2018-11-03T11:00:20.548Z,12.30
2018-11-03T11:02:54.395Z,10.53
2018-11-03T11:05:28.270Z,12.50
2018-11-03T11:08:02.024Z,12.53
2018-11-03T11:10:35.891Z,12.20
2018-11-03T11:13:12.643Z,11.53
2018-11-03T11:15:42.105Z,12.87
2018-11-03T11:18:10.793Z,11.83
2018-11-03T11:20:39.511Z,13.20
2018-11-03T11:23:08.328Z,13.47
2018-11-03T11:25:36.994Z,13.70
2018-11-03T11:28:06.007Z,12.57
2018-11-03T11:30:37.688Z,13.90
2018-11-03T11:33:08.721Z,15.13
2018-11-03T11:35:37.598Z,13.77
2018-11-03T11:38:07.999Z,14.63
2018-11-03T11:40:39.667Z,14.97
2018-11-03T11:43:10.681Z,14.33
2018-11-03T11:45:41.178Z,13.30
2018-11-03T11:48:11.749Z,14.10
2018-11-03T11:50:40.393Z,13.10
2018-11-03T11:53:09.082Z,13.00
2018-11-03T11:55:37.733Z,14.43
2018-11-03T11:58:06.781Z,13.03
2018-11-03T12:00:35.767Z,12.13
2018-11-03T12:03:04.485Z,13.50
2018-11-03T12:05:33.216Z,11.47
2018-11-03T12:08:02.026Z,12.87
2018-11-03T12:10:30.677Z,12.90
2018-11-03T12:12:59.672Z,12.50
2018-11-03T12:15:28.387Z,12.13
2018-11-03T12:17:57.274Z,13.00
2018-11-03T12:20:26.186Z,12.10
2018-11-03T12:22:55.273Z,11.70
2018-11-03T12:25:25.664Z,12.43
2018-11-03T12:27:55.220Z,11.43
2018-11-03T12:30:25.026Z,13.03
2018-11-03T12:32:53.768Z,12.40
2018-11-03T12:35:22.514Z,12.80
2018-11-03T12:37:51.138Z,11.87
2018-11-03T12:40:19.794Z,12.63
2018-11-03T12:42:48.504Z,10.67
2018-11-03T12:45:17.342Z,11.13
2018-11-03T12:47:46.604Z,13.20
2018-11-03T12:50:16.827Z,12.37
2018-11-03T12:52:45.568Z,12.20
2018-11-03T12:55:14.895Z,12.50
2018-11-03T12:57:44.077Z,11.90
2018-11-03T13:00:14.505Z,12.43
2018-11-03T13:02:44.313Z,12.00
2018-11-03T13:05:13.414Z,12.50
2018-11-03T13:07:43.306Z,12.27
2018-11-03T13:10:12.309Z,12.97
2018-11-03T13:12:41.762Z,12.63
2018-11-03T13:15:11.685Z,12.67
2018-11-03T13:17:40.488Z,11.50
2018-11-03T13:20:11.241Z,13.97
2018-11-03T13:22:40.184Z,13.00
2018-11-03T13:25:09.682Z,14.37
2018-11-03T13:27:39.236Z,13.97
2018-11-03T13:30:09.855Z,14.20
2018-11-03T13:32:38.523Z,15.00
2018-11-03T13:35:08.190Z,14.90
2018-11-03T13:37:36.728Z,15.10
2018-11-03T13:40:09.101Z,13.90
2018-11-03T13:42:37.770Z,15.07
2018-11-03T13:45:07.375Z,16.20
2018-11-03T13:47:36.656Z,15.87
2018-11-03T13:50:09.861Z,15.03
2018-11-03T13:52:38.567Z,16.10
2018-11-03T13:55:08.183Z,16.27
2018-11-03T13:57:36.866Z,17.90
2018-11-03T14:00:06.824Z,17.37
2018-11-03T14:02:35.486Z,16.70
2018-11-03T14:05:04.180Z,16.57
2018-11-03T14:10:08.152Z,17.60
2018-11-03T14:12:36.915Z,17.73
2018-11-03T14:15:06.356Z,17.03
2018-11-03T14:17:35.212Z,17.30
2018-11-03T14:20:04.363Z,17.07
2018-11-03T14:22:33.178Z,17.33
2018-11-03T14:25:01.941Z,17.10
2018-11-03T14:27:30.648Z,16.43
2018-11-03T14:29:59.269Z,15.27
2018-11-03T14:32:27.921Z,17.30
2018-11-03T14:34:56.609Z,16.90
2018-11-03T14:37:25.342Z,17.07
2018-11-03T14:39:54.025Z,16.30
2018-11-03T14:42:22.754Z,18.20
2018-11-03T14:44:51.567Z,16.50
2018-11-03T14:47:20.126Z,15.30
2018-11-03T14:49:48.916Z,17.50
2018-11-03T14:52:17.744Z,15.60
2018-11-03T14:54:51.126Z,17.10
2018-11-03T14:57:21.046Z,16.93
2018-11-03T14:59:49.867Z,17.47
2018-11-03T15:02:18.525Z,17.90
2018-11-03T15:04:47.234Z,18.47
2018-11-03T15:07:15.937Z,16.23
2018-11-03T15:09:44.732Z,16.67
2018-11-03T15:12:13.571Z,17.07
2018-11-03T15:14:42.240Z,17.97
2018-11-03T15:17:10.992Z,16.97
2018-11-03T15:19:39.703Z,17.37
2018-11-03T15:22:08.444Z,18.17
2018-11-03T15:24:37.085Z,18.57
2018-11-03T15:27:05.782Z,17.90
2018-11-03T15:29:34.534Z,16.50
2018-11-03T15:32:03.395Z,18.30
2018-11-03T15:34:32.225Z,18.30
2018-11-03T15:37:00.806Z,18.07
2018-11-03T15:39:29.651Z,18.57
2018-11-03T15:41:58.312Z,17.27
2018-11-03T15:44:27.149Z,18.87
2018-11-03T15:46:55.836Z,17.60
2018-11-03T15:49:24.565Z,18.20
2018-11-03T15:51:53.306Z,18.20
2018-11-03T15:54:22.486Z,18.50
2018-11-03T15:56:51.170Z,17.47
2018-11-03T15:59:19.824Z,17.50
2018-11-03T16:01:48.524Z,18.90
2018-11-03T16:04:17.195Z,18.83
2018-11-03T16:06:45.863Z,17.87
2018-11-03T16:09:14.551Z,17.53
2018-11-03T16:11:43.213Z,18.57
2018-11-03T16:14:11.903Z,20.30
2018-11-03T16:16:40.889Z,19.10
2018-11-03T16:19:09.690Z,18.60
2018-11-03T16:21:38.515Z,20.00
2018-11-03T16:24:07.210Z,21.15
2018-11-03T16:26:35.833Z,21.17
2018-11-03T16:29:04.467Z,20.57
2018-11-03T16:31:33.211Z,21.53
2018-11-03T16:34:02.400Z,20.30
2018-11-03T16:36:31.118Z,20.93
2018-11-03T16:38:59.783Z,19.50
2018-11-03T16:41:28.396Z,21.67
2018-11-03T16:43:57.166Z,23.30
2018-11-03T16:46:25.806Z,21.27
2018-11-03T16:48:54.483Z,22.03
2018-11-03T16:51:23.125Z,21.90
2018-11-03T16:53:51.757Z,22.90
2018-11-03T16:56:20.387Z,22.40
2018-11-03T16:58:49.170Z,23.97
2018-11-03T17:01:17.669Z,24.10
2018-11-03T17:03:46.386Z,22.40
2018-11-03T17:06:15.080Z,26.37
2018-11-03T17:08:43.739Z,27.70
2018-11-03T17:11:12.874Z,25.27
2018-11-03T17:13:41.671Z,25.63
2018-11-03T17:16:10.753Z,24.47
2018-11-03T17:18:39.475Z,24.90
2018-11-03T17:21:08.112Z,23.60
2018-11-03T17:23:36.886Z,23.97
2018-11-03T17:26:05.883Z,23.93
2018-11-03T17:28:34.629Z,24.97
2018-11-03T17:31:03.676Z,23.33
2018-11-03T17:33:32.327Z,23.87
2018-11-03T17:36:00.981Z,24.10
2018-11-03T17:38:29.654Z,24.43
2018-11-03T17:40:58.279Z,25.07
2018-11-03T17:43:26.968Z,26.87
2018-11-03T17:45:55.634Z,24.53
2018-11-03T17:48:24.770Z,23.33
2018-11-03T17:50:53.374Z,25.17
2018-11-03T17:53:22.014Z,26.10
2018-11-03T17:55:50.675Z,22.90
2018-11-03T17:58:19.352Z,25.80
2018-11-03T18:00:48.032Z,27.37
2018-11-03T18:03:16.642Z,24.47
2018-11-03T18:05:45.305Z,24.77
2018-11-03T18:08:14.033Z,25.33
2018-11-03T18:10:42.771Z,25.17
2018-11-03T18:13:11.463Z,25.63
2018-11-03T18:15:40.129Z,24.80
2018-11-03T18:18:08.810Z,26.90
2018-11-03T18:20:37.431Z,25.73
2018-11-03T18:23:07.390Z,25.50
2018-11-03T18:25:36.012Z,25.10
2018-11-03T18:28:04.650Z,25.77
2018-11-03T18:30:33.349Z,24.87
2018-11-03T18:33:02.060Z,25.90
2018-11-03T18:35:30.651Z,25.87
2018-11-03T18:37:59.505Z,24.87
2018-11-03T18:40:28.146Z,25.10
2018-11-03T18:42:56.782Z,24.23
2018-11-03T18:45:25.595Z,24.37
2018-11-03T18:47:54.296Z,26.43
2018-11-03T18:50:22.943Z,25.13
2018-11-03T18:52:51.656Z,26.47
2018-11-03T18:55:20.289Z,25.97
2018-11-03T18:57:49.011Z,24.70
2018-11-03T19:00:17.808Z,25.40
2018-11-03T19:02:46.513Z,25.93
2018-11-03T19:05:15.418Z,26.57
2018-11-03T19:07:44.137Z,24.83
2018-11-03T19:10:12.862Z,24.77
2018-11-03T19:12:41.734Z,27.90
2018-11-03T19:15:11.186Z,27.40
2018-11-03T19:17:40.091Z,29.53
2018-11-03T19:20:11.454Z,29.50
2018-11-03T19:22:40.441Z,28.47
2018-11-03T19:25:11.079Z,29.73
2018-11-03T19:27:39.992Z,30.37
2018-11-03T19:30:10.597Z,30.70
2018-11-03T19:32:40.257Z,31.47
2018-11-03T19:35:09.230Z,32.07
2018-11-03T19:37:38.085Z,30.13
2018-11-03T19:40:07.688Z,32.70
2018-11-03T19:42:36.396Z,30.70
2018-11-03T19:45:05.247Z,31.50
2018-11-03T19:47:34.740Z,31.80
2018-11-03T19:50:03.510Z,32.53
2018-11-03T19:52:32.558Z,32.37
2018-11-03T19:55:01.214Z,35.00
2018-11-03T19:57:30.184Z,33.50
2018-11-03T19:59:58.884Z,32.60
2018-11-03T20:02:27.659Z,34.33
2018-11-03T20:04:56.395Z,36.43
2018-11-03T20:07:25.221Z,33.73
2018-11-03T20:09:54.057Z,34.30
2018-11-03T20:12:24.178Z,35.97
2018-11-03T20:14:53.670Z,34.30
2018-11-03T20:17:23.007Z,34.33
2018-11-03T20:19:51.805Z,37.73
2018-11-03T20:22:20.546Z,37.93
2018-11-03T20:24:50.042Z,36.03
2018-11-03T20:27:19.128Z,38.57
2018-11-03T20:29:48.195Z,38.90
2018-11-03T20:32:17.396Z,38.03
2018-11-03T20:34:46.493Z,38.07
2018-11-03T20:37:15.337Z,40.83
2018-11-03T20:39:44.203Z,39.47
2018-11-03T20:42:13.131Z,39.40
2018-11-03T20:44:42.823Z,43.30
2018-11-03T20:47:11.535Z,46.50
2018-11-03T20:49:40.522Z,48.37
2018-11-03T20:52:09.482Z,43.43
2018-11-03T20:54:38.203Z,49.03
2018-11-03T20:57:07.004Z,54.97
2018-11-03T20:59:36.462Z,51.77
2018-11-03T21:02:05.269Z,54.93
2018-11-03T21:04:34.079Z,56.37
2018-11-03T21:07:02.938Z,56.57
2018-11-03T21:09:31.796Z,54.67
2018-11-03T21:12:00.538Z,56.97
2018-11-03T21:14:29.219Z,52.80
2018-11-03T21:16:58.005Z,56.20
2018-11-03T21:19:26.785Z,58.30
2018-11-03T21:21:55.547Z,56.07
2018-11-03T21:24:24.391Z,57.67
2018-11-03T21:26:53.185Z,58.00
2018-11-03T21:29:21.909Z,56.23
2018-11-03T21:31:51.859Z,59.50
2018-11-03T21:34:20.887Z,54.83
2018-11-03T21:36:49.548Z,58.20
2018-11-03T21:39:18.350Z,57.77
2018-11-03T21:41:47.088Z,58.03
2018-11-03T21:44:15.777Z,56.57
2018-11-03T21:46:44.558Z,58.10
2018-11-03T21:49:13.418Z,58.70
2018-11-03T21:51:42.113Z,58.37
2018-11-03T21:54:10.969Z,58.80
2018-11-03T21:56:39.659Z,59.50
2018-11-03T21:59:08.388Z,58.07
2018-11-03T22:01:37.166Z,55.33
2018-11-03T22:04:05.963Z,54.60
2018-11-03T22:06:34.657Z,51.67
2018-11-03T22:09:03.552Z,55.57
2018-11-03T22:11:35.193Z,54.47
2018-11-03T22:14:03.876Z,55.90
2018-11-03T22:16:32.545Z,53.80
2018-11-03T22:19:01.214Z,51.93
2018-11-03T22:21:30.905Z,50.77
2018-11-03T22:24:00.255Z,51.20
2018-11-03T22:26:29.076Z,50.87
2018-11-03T22:28:58.001Z,51.17
2018-11-03T22:31:27.337Z,50.83
2018-11-03T22:33:56.618Z,49.67
2018-11-03T22:36:25.502Z,50.83
2018-11-03T22:38:54.184Z,51.67
2018-11-03T22:41:23.078Z,49.53
2018-11-03T22:43:52.041Z,55.20
2018-11-03T22:46:20.755Z,51.23
2018-11-03T22:48:49.408Z,50.90
2018-11-03T22:51:18.179Z,53.67
2018-11-03T22:53:46.922Z,51.80
2018-11-03T22:56:15.770Z,50.70
2018-11-03T22:58:44.487Z,47.47
2018-11-03T23:01:13.121Z,45.27
2018-11-03T23:03:41.861Z,47.13
2018-11-03T23:06:10.561Z,50.33
2018-11-03T23:08:39.275Z,48.70
2018-11-03T23:11:08.026Z,50.63
2018-11-03T23:13:36.774Z,50.00
2018-11-03T23:16:05.698Z,50.23
2018-11-03T23:18:34.331Z,50.73
2018-11-03T23:21:03.139Z,51.40
2018-11-03T23:23:31.860Z,53.20
2018-11-03T23:26:00.629Z,52.13
2018-11-03T23:28:29.519Z,53.30
2018-11-03T23:30:58.237Z,54.33
2018-11-03T23:33:26.986Z,56.10
2018-11-03T23:35:55.744Z,55.87
2018-11-03T23:38:24.403Z,55.60
2018-11-03T23:40:53.108Z,58.17
2018-11-03T23:43:21.802Z,52.60
2018-11-03T23:45:50.982Z,54.10
2018-11-03T23:48:19.733Z,53.87
2018-11-03T23:50:48.446Z,56.23
2018-11-03T23:53:17.292Z,53.97
2018-11-03T23:55:45.912Z,54.47
2018-11-03T23:58:14.577Z,55.00
